sensor_id;sensor_type;location;lat;lon;timestamp;P1;durP1;ratioP1;P2;durP2;ratioP2
20397;SDS011;10358;49.590;11.030;2023-04-21T00:00:12;27.17;;;15.87;;
20397;SDS011;10358;49.590;11.030;2023-04-21T00:02:38;26.57;;;15.00;;
20397;SDS011;10358;49.590;11.030;2023-04-21T00:05:06;24.57;;;15.30;;
20397;SDS011;10358;49.590;11.030;2023-04-21T00:07:37;26.70;;;15.60;;
20397;SDS011;10358;49.590;11.030;2023-04-21T00:10:07;26.27;;;15.33;;
20397;SDS011;10358;49.590;11.030;2023-04-21T00:12:34;27.57;;;16.40;;
20397;SDS011;10358;49.590;11.030;2023-04-21T00:15:00;28.80;;;16.07;;
20397;SDS011;10358;49.590;11.030;2023-04-21T00:17:26;26.77;;;15.90;;
20397;SDS011;10358;49.590;11.030;2023-04-21T00:19:51;28.07;;;15.63;;
20397;SDS011;10358;49.590;11.030;2023-04-21T00:22:17;27.13;;;16.53;;
20397;SDS011;10358;49.590;11.030;2023-04-21T00:24:43;27.00;;;15.90;;
20397;SDS011;10358;49.590;11.030;2023-04-21T00:27:09;28.07;;;15.87;;
20397;SDS011;10358;49.590;11.030;2023-04-21T00:29:35;29.73;;;15.63;;
20397;SDS011;10358;49.590;11.030;2023-04-21T00:32:01;26.57;;;15.83;;
20397;SDS011;10358;49.590;11.030;2023-04-21T00:34:28;26.70;;;15.53;;
20397;SDS011;10358;49.590;11.030;2023-04-21T00:36:53;25.33;;;15.10;;
20397;SDS011;10358;49.590;11.030;2023-04-21T00:39:19;27.93;;;14.67;;
20397;SDS011;10358;49.590;11.030;2023-04-21T00:41:44;26.00;;;15.40;;
20397;SDS011;10358;49.590;11.030;2023-04-21T00:44:10;26.47;;;16.13;;
20397;SDS011;10358;49.590;11.030;2023-04-21T00:46:36;27.53;;;15.77;;
20397;SDS011;10358;49.590;11.030;2023-04-21T00:49:03;27.27;;;16.07;;
20397;SDS011;10358;49.590;11.030;2023-04-21T00:51:30;25.90;;;15.90;;
20397;SDS011;10358;49.590;11.030;2023-04-21T00:53:58;27.73;;;16.53;;
20397;SDS011;10358;49.590;11.030;2023-04-21T00:56:26;24.93;;;16.10;;
20397;SDS011;10358;49.590;11.030;2023-04-21T00:58:54;28.87;;;16.50;;
20397;SDS011;10358;49.590;11.030;2023-04-21T01:01:22;26.60;;;16.10;;
20397;SDS011;10358;49.590;11.030;2023-04-21T01:03:48;23.57;;;15.53;;
20397;SDS011;10358;49.590;11.030;2023-04-21T01:06:14;28.30;;;17.37;;
20397;SDS011;10358;49.590;11.030;2023-04-21T01:08:40;27.63;;;16.43;;
20397;SDS011;10358;49.590;11.030;2023-04-21T01:11:12;29.93;;;16.50;;
20397;SDS011;10358;49.590;11.030;2023-04-21T01:13:38;30.20;;;16.67;;
20397;SDS011;10358;49.590;11.030;2023-04-21T01:16:04;29.57;;;17.00;;
20397;SDS011;10358;49.590;11.030;2023-04-21T01:18:31;27.07;;;16.70;;
20397;SDS011;10358;49.590;11.030;2023-04-21T01:20:57;29.23;;;16.60;;
20397;SDS011;10358;49.590;11.030;2023-04-21T01:23:23;23.93;;;14.60;;
20397;SDS011;10358;49.590;11.030;2023-04-21T01:25:49;22.57;;;13.97;;
20397;SDS011;10358;49.590;11.030;2023-04-21T01:28:20;26.10;;;13.53;;
20397;SDS011;10358;49.590;11.030;2023-04-21T01:30:46;22.53;;;13.33;;
20397;SDS011;10358;49.590;11.030;2023-04-21T01:33:12;22.07;;;13.20;;
20397;SDS011;10358;49.590;11.030;2023-04-21T01:35:37;22.83;;;12.43;;
20397;SDS011;10358;49.590;11.030;2023-04-21T01:38:04;19.77;;;12.37;;
20397;SDS011;10358;49.590;11.030;2023-04-21T01:40:30;19.83;;;12.30;;
20397;SDS011;10358;49.590;11.030;2023-04-21T01:42:55;21.77;;;13.40;;
20397;SDS011;10358;49.590;11.030;2023-04-21T01:45:21;22.07;;;13.30;;
20397;SDS011;10358;49.590;11.030;2023-04-21T01:47:47;21.90;;;13.27;;
20397;SDS011;10358;49.590;11.030;2023-04-21T01:50:12;20.33;;;13.03;;
20397;SDS011;10358;49.590;11.030;2023-04-21T01:52:38;21.43;;;13.70;;
20397;SDS011;10358;49.590;11.030;2023-04-21T01:55:03;22.10;;;13.40;;
20397;SDS011;10358;49.590;11.030;2023-04-21T01:57:29;22.67;;;14.57;;
20397;SDS011;10358;49.590;11.030;2023-04-21T01:59:55;24.03;;;14.77;;
20397;SDS011;10358;49.590;11.030;2023-04-21T02:02:21;29.37;;;16.70;;
20397;SDS011;10358;49.590;11.030;2023-04-21T02:04:47;30.47;;;17.17;;
20397;SDS011;10358;49.590;11.030;2023-04-21T02:07:12;34.57;;;18.80;;
20397;SDS011;10358;49.590;11.030;2023-04-21T02:09:38;30.23;;;18.10;;
20397;SDS011;10358;49.590;11.030;2023-04-21T02:12:03;30.27;;;17.90;;
20397;SDS011;10358;49.590;11.030;2023-04-21T02:14:29;32.53;;;18.90;;
20397;SDS011;10358;49.590;11.030;2023-04-21T02:16:55;35.37;;;19.10;;
20397;SDS011;10358;49.590;11.030;2023-04-21T02:19:20;34.57;;;19.80;;
20397;SDS011;10358;49.590;11.030;2023-04-21T02:21:46;30.77;;;18.37;;
20397;SDS011;10358;49.590;11.030;2023-04-21T02:24:11;33.57;;;19.63;;
20397;SDS011;10358;49.590;11.030;2023-04-21T02:26:37;30.83;;;18.03;;
20397;SDS011;10358;49.590;11.030;2023-04-21T02:29:02;35.83;;;18.20;;
20397;SDS011;10358;49.590;11.030;2023-04-21T02:31:28;33.07;;;18.40;;
20397;SDS011;10358;49.590;11.030;2023-04-21T02:33:54;32.27;;;18.43;;
20397;SDS011;10358;49.590;11.030;2023-04-21T02:36:19;33.93;;;18.50;;
20397;SDS011;10358;49.590;11.030;2023-04-21T02:38:45;28.97;;;17.77;;
20397;SDS011;10358;49.590;11.030;2023-04-21T02:41:11;30.40;;;18.00;;
20397;SDS011;10358;49.590;11.030;2023-04-21T02:43:36;31.03;;;17.67;;
20397;SDS011;10358;49.590;11.030;2023-04-21T02:46:08;30.57;;;17.30;;
20397;SDS011;10358;49.590;11.030;2023-04-21T02:48:33;30.97;;;17.63;;
20397;SDS011;10358;49.590;11.030;2023-04-21T02:51:00;31.33;;;18.23;;
20397;SDS011;10358;49.590;11.030;2023-04-21T02:53:25;30.53;;;17.87;;
20397;SDS011;10358;49.590;11.030;2023-04-21T02:55:51;32.57;;;19.00;;
20397;SDS011;10358;49.590;11.030;2023-04-21T02:58:17;31.00;;;18.40;;
20397;SDS011;10358;49.590;11.030;2023-04-21T03:00:42;29.53;;;17.33;;
20397;SDS011;10358;49.590;11.030;2023-04-21T03:03:08;30.17;;;18.20;;
20397;SDS011;10358;49.590;11.030;2023-04-21T03:05:34;36.03;;;18.13;;
20397;SDS011;10358;49.590;11.030;2023-04-21T03:07:59;30.57;;;17.37;;
20397;SDS011;10358;49.590;11.030;2023-04-21T03:10:25;28.13;;;16.83;;
20397;SDS011;10358;49.590;11.030;2023-04-21T03:12:50;27.17;;;16.20;;
20397;SDS011;10358;49.590;11.030;2023-04-21T03:15:16;24.17;;;15.37;;
20397;SDS011;10358;49.590;11.030;2023-04-21T03:17:43;26.80;;;16.10;;
20397;SDS011;10358;49.590;11.030;2023-04-21T03:20:09;31.23;;;16.47;;
20397;SDS011;10358;49.590;11.030;2023-04-21T03:22:35;27.60;;;16.83;;
20397;SDS011;10358;49.590;11.030;2023-04-21T03:25:02;32.00;;;17.87;;
20397;SDS011;10358;49.590;11.030;2023-04-21T03:27:29;31.23;;;17.80;;
20397;SDS011;10358;49.590;11.030;2023-04-21T03:29:55;30.27;;;17.07;;
20397;SDS011;10358;49.590;11.030;2023-04-21T03:32:20;26.73;;;16.10;;
20397;SDS011;10358;49.590;11.030;2023-04-21T03:34:46;24.67;;;14.90;;
20397;SDS011;10358;49.590;11.030;2023-04-21T03:37:12;25.63;;;15.97;;
20397;SDS011;10358;49.590;11.030;2023-04-21T03:39:37;26.93;;;15.97;;
20397;SDS011;10358;49.590;11.030;2023-04-21T03:42:03;26.63;;;15.90;;
20397;SDS011;10358;49.590;11.030;2023-04-21T03:44:29;28.53;;;16.93;;
20397;SDS011;10358;49.590;11.030;2023-04-21T03:46:55;30.07;;;17.27;;
20397;SDS011;10358;49.590;11.030;2023-04-21T03:49:21;30.30;;;17.10;;
20397;SDS011;10358;49.590;11.030;2023-04-21T03:51:47;31.60;;;17.67;;
20397;SDS011;10358;49.590;11.030;2023-04-21T03:54:13;29.23;;;16.30;;
20397;SDS011;10358;49.590;11.030;2023-04-21T03:56:39;28.60;;;16.43;;
20397;SDS011;10358;49.590;11.030;2023-04-21T03:59:04;29.80;;;15.87;;
20397;SDS011;10358;49.590;11.030;2023-04-21T04:01:30;27.03;;;15.90;;
20397;SDS011;10358;49.590;11.030;2023-04-21T04:03:56;29.10;;;16.13;;
20397;SDS011;10358;49.590;11.030;2023-04-21T04:06:21;26.23;;;15.57;;
20397;SDS011;10358;49.590;11.030;2023-04-21T04:08:47;29.73;;;16.17;;
20397;SDS011;10358;49.590;11.030;2023-04-21T04:11:12;25.93;;;14.73;;
20397;SDS011;10358;49.590;11.030;2023-04-21T04:13:38;25.77;;;15.30;;
20397;SDS011;10358;49.590;11.030;2023-04-21T04:16:04;26.57;;;14.97;;
20397;SDS011;10358;49.590;11.030;2023-04-21T04:18:29;24.50;;;14.90;;
20397;SDS011;10358;49.590;11.030;2023-04-21T04:20:55;25.20;;;14.77;;
20397;SDS011;10358;49.590;11.030;2023-04-21T04:23:21;32.87;;;15.90;;
20397;SDS011;10358;49.590;11.030;2023-04-21T04:25:46;26.80;;;15.50;;
20397;SDS011;10358;49.590;11.030;2023-04-21T04:28:13;26.93;;;15.87;;
20397;SDS011;10358;49.590;11.030;2023-04-21T04:30:39;28.20;;;16.70;;
20397;SDS011;10358;49.590;11.030;2023-04-21T04:33:05;31.10;;;17.23;;
20397;SDS011;10358;49.590;11.030;2023-04-21T04:35:30;27.57;;;16.30;;
20397;SDS011;10358;49.590;11.030;2023-04-21T04:37:56;30.87;;;16.43;;
20397;SDS011;10358;49.590;11.030;2023-04-21T04:40:23;28.40;;;16.17;;
20397;SDS011;10358;49.590;11.030;2023-04-21T04:42:48;27.57;;;16.33;;
20397;SDS011;10358;49.590;11.030;2023-04-21T04:45:15;27.43;;;15.53;;
20397;SDS011;10358;49.590;11.030;2023-04-21T04:47:41;28.30;;;16.10;;
20397;SDS011;10358;49.590;11.030;2023-04-21T04:50:07;29.97;;;16.87;;
20397;SDS011;10358;49.590;11.030;2023-04-21T04:52:32;34.00;;;18.20;;
20397;SDS011;10358;49.590;11.030;2023-04-21T04:54:58;33.00;;;17.87;;
20397;SDS011;10358;49.590;11.030;2023-04-21T04:57:23;34.40;;;17.93;;
20397;SDS011;10358;49.590;11.030;2023-04-21T04:59:53;32.57;;;18.27;;
20397;SDS011;10358;49.590;11.030;2023-04-21T05:02:19;33.53;;;18.03;;
20397;SDS011;10358;49.590;11.030;2023-04-21T05:04:46;31.70;;;16.77;;
20397;SDS011;10358;49.590;11.030;2023-04-21T05:07:12;33.43;;;17.10;;
20397;SDS011;10358;49.590;11.030;2023-04-21T05:09:37;31.37;;;17.77;;
20397;SDS011;10358;49.590;11.030;2023-04-21T05:12:03;32.43;;;17.47;;
20397;SDS011;10358;49.590;11.030;2023-04-21T05:14:28;29.37;;;17.13;;
20397;SDS011;10358;49.590;11.030;2023-04-21T05:16:54;29.00;;;15.87;;
20397;SDS011;10358;49.590;11.030;2023-04-21T05:19:20;26.97;;;15.73;;
20397;SDS011;10358;49.590;11.030;2023-04-21T05:21:45;26.17;;;14.67;;
20397;SDS011;10358;49.590;11.030;2023-04-21T05:24:11;23.33;;;13.60;;
20397;SDS011;10358;49.590;11.030;2023-04-21T05:26:36;25.70;;;15.03;;
20397;SDS011;10358;49.590;11.030;2023-04-21T05:29:02;26.77;;;15.83;;
20397;SDS011;10358;49.590;11.030;2023-04-21T05:31:27;26.73;;;14.83;;
20397;SDS011;10358;49.590;11.030;2023-04-21T05:33:53;27.47;;;15.87;;
20397;SDS011;10358;49.590;11.030;2023-04-21T05:36:18;29.00;;;16.80;;
20397;SDS011;10358;49.590;11.030;2023-04-21T05:38:44;31.37;;;16.57;;
20397;SDS011;10358;49.590;11.030;2023-04-21T05:41:10;29.83;;;15.40;;
20397;SDS011;10358;49.590;11.030;2023-04-21T05:43:36;29.43;;;16.50;;
20397;SDS011;10358;49.590;11.030;2023-04-21T05:46:02;29.13;;;16.33;;
20397;SDS011;10358;49.590;11.030;2023-04-21T05:48:28;29.67;;;15.73;;
20397;SDS011;10358;49.590;11.030;2023-04-21T05:50:54;26.73;;;16.03;;
20397;SDS011;10358;49.590;11.030;2023-04-21T05:53:19;30.40;;;16.63;;
20397;SDS011;10358;49.590;11.030;2023-04-21T05:55:47;33.33;;;17.40;;
20397;SDS011;10358;49.590;11.030;2023-04-21T05:58:12;26.87;;;16.33;;
20397;SDS011;10358;49.590;11.030;2023-04-21T06:00:38;29.27;;;17.97;;
20397;SDS011;10358;49.590;11.030;2023-04-21T06:03:04;28.53;;;16.53;;
20397;SDS011;10358;49.590;11.030;2023-04-21T06:05:30;28.53;;;17.30;;
20397;SDS011;10358;49.590;11.030;2023-04-21T06:07:56;27.57;;;16.03;;
20397;SDS011;10358;49.590;11.030;2023-04-21T06:10:22;26.60;;;15.97;;
20397;SDS011;10358;49.590;11.030;2023-04-21T06:12:47;25.77;;;15.97;;
20397;SDS011;10358;49.590;11.030;2023-04-21T06:15:13;26.37;;;15.47;;
20397;SDS011;10358;49.590;11.030;2023-04-21T06:17:38;26.03;;;15.13;;
20397;SDS011;10358;49.590;11.030;2023-04-21T06:20:04;26.13;;;14.90;;
20397;SDS011;10358;49.590;11.030;2023-04-21T06:22:31;24.90;;;14.57;;
20397;SDS011;10358;49.590;11.030;2023-04-21T06:24:57;22.33;;;13.70;;
20397;SDS011;10358;49.590;11.030;2023-04-21T06:27:23;25.00;;;14.27;;
20397;SDS011;10358;49.590;11.030;2023-04-21T06:29:52;25.03;;;13.23;;
20397;SDS011;10358;49.590;11.030;2023-04-21T06:32:20;25.00;;;14.63;;
20397;SDS011;10358;49.590;11.030;2023-04-21T06:34:45;21.73;;;13.30;;
20397;SDS011;10358;49.590;11.030;2023-04-21T06:37:11;22.07;;;13.20;;
20397;SDS011;10358;49.590;11.030;2023-04-21T06:39:36;26.60;;;14.07;;
20397;SDS011;10358;49.590;11.030;2023-04-21T06:42:02;23.50;;;12.83;;
20397;SDS011;10358;49.590;11.030;2023-04-21T06:44:28;24.40;;;12.67;;
20397;SDS011;10358;49.590;11.030;2023-04-21T06:46:53;23.20;;;13.37;;
20397;SDS011;10358;49.590;11.030;2023-04-21T06:49:19;20.17;;;12.50;;
20397;SDS011;10358;49.590;11.030;2023-04-21T06:51:44;20.97;;;12.27;;
20397;SDS011;10358;49.590;11.030;2023-04-21T06:54:10;24.67;;;12.47;;
20397;SDS011;10358;49.590;11.030;2023-04-21T06:56:36;20.20;;;12.67;;
20397;SDS011;10358;49.590;11.030;2023-04-21T06:59:01;23.07;;;12.63;;
20397;SDS011;10358;49.590;11.030;2023-04-21T07:01:27;19.50;;;12.13;;
20397;SDS011;10358;49.590;11.030;2023-04-21T07:03:52;20.93;;;12.37;;
20397;SDS011;10358;49.590;11.030;2023-04-21T07:06:18;21.33;;;12.03;;
20397;SDS011;10358;49.590;11.030;2023-04-21T07:11:11;20.23;;;12.27;;
20397;SDS011;10358;49.590;11.030;2023-04-21T07:13:37;21.67;;;12.03;;
20397;SDS011;10358;49.590;11.030;2023-04-21T07:16:02;21.93;;;12.10;;
20397;SDS011;10358;49.590;11.030;2023-04-21T07:18:28;19.80;;;11.27;;
20397;SDS011;10358;49.590;11.030;2023-04-21T07:20:54;17.10;;;11.40;;
20397;SDS011;10358;49.590;11.030;2023-04-21T07:23:19;22.00;;;12.10;;
20397;SDS011;10358;49.590;11.030;2023-04-21T07:25:45;19.40;;;11.30;;
20397;SDS011;10358;49.590;11.030;2023-04-21T07:28:10;21.10;;;11.73;;
20397;SDS011;10358;49.590;11.030;2023-04-21T07:30:38;20.10;;;11.97;;
20397;SDS011;10358;49.590;11.030;2023-04-21T07:33:04;18.13;;;11.00;;
20397;SDS011;10358;49.590;11.030;2023-04-21T07:35:30;18.00;;;11.23;;
20397;SDS011;10358;49.590;11.030;2023-04-21T07:37:55;23.53;;;12.50;;
20397;SDS011;10358;49.590;11.030;2023-04-21T07:40:21;18.07;;;11.17;;
20397;SDS011;10358;49.590;11.030;2023-04-21T07:42:46;18.53;;;10.80;;
20397;SDS011;10358;49.590;11.030;2023-04-21T07:45:12;20.27;;;10.93;;
20397;SDS011;10358;49.590;11.030;2023-04-21T07:47:37;17.37;;;10.70;;
20397;SDS011;10358;49.590;11.030;2023-04-21T07:50:03;19.17;;;10.93;;
20397;SDS011;10358;49.590;11.030;2023-04-21T07:52:29;18.53;;;10.50;;
20397;SDS011;10358;49.590;11.030;2023-04-21T07:54:55;18.60;;;10.23;;
20397;SDS011;10358;49.590;11.030;2023-04-21T07:57:20;16.07;;;10.30;;
20397;SDS011;10358;49.590;11.030;2023-04-21T07:59:46;22.10;;;10.60;;
20397;SDS011;10358;49.590;11.030;2023-04-21T08:02:11;17.00;;;9.83;;
20397;SDS011;10358;49.590;11.030;2023-04-21T08:04:37;18.40;;;10.17;;
20397;SDS011;10358;49.590;11.030;2023-04-21T08:07:02;15.23;;;9.80;;
20397;SDS011;10358;49.590;11.030;2023-04-21T08:09:28;17.10;;;9.53;;
20397;SDS011;10358;49.590;11.030;2023-04-21T08:11:54;20.27;;;10.03;;
20397;SDS011;10358;49.590;11.030;2023-04-21T08:14:21;14.20;;;8.43;;
20397;SDS011;10358;49.590;11.030;2023-04-21T08:16:46;12.37;;;8.37;;
20397;SDS011;10358;49.590;11.030;2023-04-21T08:19:12;12.13;;;8.37;;
20397;SDS011;10358;49.590;11.030;2023-04-21T08:21:38;13.88;;;8.27;;
20397;SDS011;10358;49.590;11.030;2023-04-21T08:24:03;11.57;;;8.00;;
20397;SDS011;10358;49.590;11.030;2023-04-21T08:26:29;11.67;;;7.80;;
20397;SDS011;10358;49.590;11.030;2023-04-21T08:28:57;13.17;;;8.33;;
20397;SDS011;10358;49.590;11.030;2023-04-21T08:31:24;13.47;;;8.13;;
20397;SDS011;10358;49.590;11.030;2023-04-21T08:33:50;14.10;;;7.65;;
20397;SDS011;10358;49.590;11.030;2023-04-21T08:36:15;13.07;;;7.63;;
20397;SDS011;10358;49.590;11.030;2023-04-21T08:38:41;14.20;;;7.77;;
20397;SDS011;10358;49.590;11.030;2023-04-21T08:41:08;12.52;;;7.85;;
20397;SDS011;10358;49.590;11.030;2023-04-21T08:43:33;14.00;;;7.50;;
20397;SDS011;10358;49.590;11.030;2023-04-21T08:46:00;14.10;;;6.72;;
20397;SDS011;10358;49.590;11.030;2023-04-21T08:48:30;12.97;;;7.80;;
20397;SDS011;10358;49.590;11.030;2023-04-21T08:51:01;14.82;;;6.88;;
20397;SDS011;10358;49.590;11.030;2023-04-21T08:53:27;10.48;;;7.47;;
20397;SDS011;10358;49.590;11.030;2023-04-21T08:55:54;12.87;;;6.90;;
20397;SDS011;10358;49.590;11.030;2023-04-21T08:58:20;11.02;;;6.93;;
20397;SDS011;10358;49.590;11.030;2023-04-21T09:00:47;11.48;;;6.80;;
20397;SDS011;10358;49.590;11.030;2023-04-21T09:03:21;12.55;;;6.60;;
20397;SDS011;10358;49.590;11.030;2023-04-21T09:05:57;9.68;;;6.25;;
20397;SDS011;10358;49.590;11.030;2023-04-21T09:08:24;13.48;;;7.15;;
20397;SDS011;10358;49.590;11.030;2023-04-21T09:10:52;10.75;;;6.65;;
20397;SDS011;10358;49.590;11.030;2023-04-21T09:13:18;11.23;;;6.75;;
20397;SDS011;10358;49.590;11.030;2023-04-21T09:15:45;10.00;;;6.25;;
20397;SDS011;10358;49.590;11.030;2023-04-21T09:18:20;10.98;;;7.18;;
20397;SDS011;10358;49.590;11.030;2023-04-21T09:20:48;10.60;;;6.63;;
20397;SDS011;10358;49.590;11.030;2023-04-21T09:23:15;14.20;;;7.15;;
20397;SDS011;10358;49.590;11.030;2023-04-21T09:25:41;11.30;;;7.20;;
20397;SDS011;10358;49.590;11.030;2023-04-21T09:28:11;11.95;;;7.13;;
20397;SDS011;10358;49.590;11.030;2023-04-21T09:30:38;11.88;;;7.00;;
20397;SDS011;10358;49.590;11.030;2023-04-21T09:33:06;9.93;;;6.82;;
20397;SDS011;10358;49.590;11.030;2023-04-21T09:35:35;11.38;;;6.47;;
20397;SDS011;10358;49.590;11.030;2023-04-21T09:38:09;11.43;;;6.40;;
20397;SDS011;10358;49.590;11.030;2023-04-21T09:40:35;9.75;;;6.32;;
20397;SDS011;10358;49.590;11.030;2023-04-21T09:43:01;15.15;;;6.57;;
20397;SDS011;10358;49.590;11.030;2023-04-21T09:45:27;10.80;;;6.03;;
20397;SDS011;10358;49.590;11.030;2023-04-21T09:47:54;10.40;;;6.45;;
20397;SDS011;10358;49.590;11.030;2023-04-21T09:50:22;9.43;;;6.63;;
20397;SDS011;10358;49.590;11.030;2023-04-21T09:52:50;10.65;;;6.20;;
20397;SDS011;10358;49.590;11.030;2023-04-21T09:55:17;12.50;;;6.32;;
20397;SDS011;10358;49.590;11.030;2023-04-21T09:57:43;7.95;;;5.90;;
20397;SDS011;10358;49.590;11.030;2023-04-21T10:00:12;9.05;;;4.80;;
20397;SDS011;10358;49.590;11.030;2023-04-21T10:02:41;9.77;;;5.20;;
20397;SDS011;10358;49.590;11.030;2023-04-21T10:05:14;8.50;;;5.28;;
20397;SDS011;10358;49.590;11.030;2023-04-21T10:07:40;7.40;;;4.70;;
20397;SDS011;10358;49.590;11.030;2023-04-21T10:10:14;7.30;;;4.60;;
20397;SDS011;10358;49.590;11.030;2023-04-21T10:12:44;8.32;;;5.00;;
20397;SDS011;10358;49.590;11.030;2023-04-21T10:18:15;7.45;;;4.85;;
20397;SDS011;10358;49.590;11.030;2023-04-21T10:20:52;7.00;;;4.82;;
20397;SDS011;10358;49.590;11.030;2023-04-21T10:25:51;7.75;;;5.10;;
20397;SDS011;10358;49.590;11.030;2023-04-21T10:28:17;6.47;;;4.55;;
20397;SDS011;10358;49.590;11.030;2023-04-21T10:30:43;8.48;;;4.57;;
20397;SDS011;10358;49.590;11.030;2023-04-21T10:33:08;7.28;;;4.40;;
20397;SDS011;10358;49.590;11.030;2023-04-21T10:36:19;11.10;;;4.20;;
20397;SDS011;10358;49.590;11.030;2023-04-21T10:38:41;10.68;;;5.28;;
20397;SDS011;10358;49.590;11.030;2023-04-21T10:43:53;7.20;;;4.88;;
20397;SDS011;10358;49.590;11.030;2023-04-21T10:46:31;7.20;;;4.10;;
20397;SDS011;10358;49.590;11.030;2023-04-21T10:49:05;6.70;;;4.20;;
20397;SDS011;10358;49.590;11.030;2023-04-21T10:52:20;9.60;;;4.07;;
20397;SDS011;10358;49.590;11.030;2023-04-21T10:54:20;5.95;;;4.20;;
20397;SDS011;10358;49.590;11.030;2023-04-21T10:56:47;8.10;;;3.92;;
20397;SDS011;10358;49.590;11.030;2023-04-21T10:59:17;6.80;;;3.60;;
20397;SDS011;10358;49.590;11.030;2023-04-21T11:01:43;5.25;;;3.85;;
20397;SDS011;10358;49.590;11.030;2023-04-21T11:04:15;6.05;;;4.10;;
20397;SDS011;10358;49.590;11.030;2023-04-21T11:09:37;5.45;;;3.40;;
20397;SDS011;10358;49.590;11.030;2023-04-21T11:12:05;6.97;;;3.10;;
20397;SDS011;10358;49.590;11.030;2023-04-21T11:14:33;4.70;;;3.08;;
20397;SDS011;10358;49.590;11.030;2023-04-21T11:17:00;6.32;;;3.10;;
20397;SDS011;10358;49.590;11.030;2023-04-21T11:19:27;6.15;;;3.47;;
20397;SDS011;10358;49.590;11.030;2023-04-21T11:21:52;4.93;;;3.40;;
20397;SDS011;10358;49.590;11.030;2023-04-21T11:24:22;7.43;;;3.30;;
20397;SDS011;10358;49.590;11.030;2023-04-21T11:26:48;4.57;;;3.08;;
20397;SDS011;10358;49.590;11.030;2023-04-21T11:29:14;6.10;;;3.63;;
20397;SDS011;10358;49.590;11.030;2023-04-21T11:31:40;4.65;;;3.33;;
20397;SDS011;10358;49.590;11.030;2023-04-21T11:34:08;4.05;;;3.33;;
20397;SDS011;10358;49.590;11.030;2023-04-21T11:39:03;4.90;;;3.55;;
20397;SDS011;10358;49.590;11.030;2023-04-21T11:41:32;4.72;;;3.33;;
20397;SDS011;10358;49.590;11.030;2023-04-21T11:43:57;4.97;;;3.47;;
20397;SDS011;10358;49.590;11.030;2023-04-21T11:46:24;5.65;;;3.30;;
20397;SDS011;10358;49.590;11.030;2023-04-21T11:49:04;5.90;;;3.40;;
20397;SDS011;10358;49.590;11.030;2023-04-21T11:51:37;5.45;;;3.63;;
20397;SDS011;10358;49.590;11.030;2023-04-21T11:54:06;4.95;;;3.60;;
20397;SDS011;10358;49.590;11.030;2023-04-21T11:56:37;4.97;;;3.50;;
20397;SDS011;10358;49.590;11.030;2023-04-21T11:59:07;4.13;;;3.40;;
20397;SDS011;10358;49.590;11.030;2023-04-21T12:01:50;7.93;;;3.47;;
20397;SDS011;10358;49.590;11.030;2023-04-21T12:04:21;4.03;;;3.00;;
20397;SDS011;10358;49.590;11.030;2023-04-21T12:07:01;5.72;;;3.20;;
20397;SDS011;10358;49.590;11.030;2023-04-21T12:09:27;8.52;;;3.22;;
20397;SDS011;10358;49.590;11.030;2023-04-21T12:11:54;4.18;;;3.00;;
20397;SDS011;10358;49.590;11.030;2023-04-21T12:14:26;4.28;;;3.00;;
20397;SDS011;10358;49.590;11.030;2023-04-21T12:16:53;3.47;;;2.67;;
20397;SDS011;10358;49.590;11.030;2023-04-21T12:19:36;4.03;;;2.80;;
20397;SDS011;10358;49.590;11.030;2023-04-21T12:22:09;5.20;;;3.08;;
20397;SDS011;10358;49.590;11.030;2023-04-21T12:24:36;5.18;;;3.00;;
20397;SDS011;10358;49.590;11.030;2023-04-21T12:27:02;3.80;;;2.85;;
20397;SDS011;10358;49.590;11.030;2023-04-21T12:29:28;5.70;;;2.90;;
20397;SDS011;10358;49.590;11.030;2023-04-21T12:31:54;3.88;;;3.10;;
20397;SDS011;10358;49.590;11.030;2023-04-21T12:34:19;4.13;;;3.03;;
20397;SDS011;10358;49.590;11.030;2023-04-21T12:36:45;4.30;;;2.95;;
20397;SDS011;10358;49.590;11.030;2023-04-21T12:39:11;4.13;;;2.95;;
20397;SDS011;10358;49.590;11.030;2023-04-21T12:41:37;3.55;;;2.90;;
20397;SDS011;10358;49.590;11.030;2023-04-21T12:44:03;3.90;;;2.50;;
20397;SDS011;10358;49.590;11.030;2023-04-21T12:46:29;3.63;;;2.58;;
20397;SDS011;10358;49.590;11.030;2023-04-21T12:48:55;4.40;;;2.78;;
20397;SDS011;10358;49.590;11.030;2023-04-21T12:51:21;4.57;;;3.08;;
20397;SDS011;10358;49.590;11.030;2023-04-21T12:53:46;3.92;;;2.72;;
20397;SDS011;10358;49.590;11.030;2023-04-21T12:56:13;4.45;;;3.08;;
20397;SDS011;10358;49.590;11.030;2023-04-21T12:58:38;5.15;;;2.97;;
20397;SDS011;10358;49.590;11.030;2023-04-21T13:01:04;3.40;;;2.70;;
20397;SDS011;10358;49.590;11.030;2023-04-21T13:03:30;4.00;;;2.88;;
20397;SDS011;10358;49.590;11.030;2023-04-21T13:05:56;4.22;;;2.80;;
20397;SDS011;10358;49.590;11.030;2023-04-21T13:08:22;3.72;;;2.80;;
20397;SDS011;10358;49.590;11.030;2023-04-21T13:10:47;3.78;;;3.05;;
20397;SDS011;10358;49.590;11.030;2023-04-21T13:13:13;3.22;;;2.70;;
20397;SDS011;10358;49.590;11.030;2023-04-21T13:15:39;4.00;;;2.63;;
20397;SDS011;10358;49.590;11.030;2023-04-21T13:18:05;6.65;;;2.47;;
20397;SDS011;10358;49.590;11.030;2023-04-21T13:20:30;3.80;;;2.67;;
20397;SDS011;10358;49.590;11.030;2023-04-21T13:22:56;6.00;;;3.00;;
20397;SDS011;10358;49.590;11.030;2023-04-21T13:25:21;3.85;;;2.88;;
20397;SDS011;10358;49.590;11.030;2023-04-21T13:27:47;4.00;;;2.88;;
20397;SDS011;10358;49.590;11.030;2023-04-21T13:30:15;3.50;;;2.58;;
20397;SDS011;10358;49.590;11.030;2023-04-21T13:32:41;5.03;;;2.50;;
20397;SDS011;10358;49.590;11.030;2023-04-21T13:35:07;4.82;;;2.95;;
20397;SDS011;10358;49.590;11.030;2023-04-21T13:37:37;3.80;;;2.75;;
20397;SDS011;10358;49.590;11.030;2023-04-21T13:40:04;3.85;;;2.88;;
20397;SDS011;10358;49.590;11.030;2023-04-21T13:42:32;4.72;;;3.15;;
20397;SDS011;10358;49.590;11.030;2023-04-21T13:44:58;4.40;;;2.63;;
20397;SDS011;10358;49.590;11.030;2023-04-21T13:47:26;5.20;;;2.97;;
20397;SDS011;10358;49.590;11.030;2023-04-21T13:49:52;4.15;;;2.90;;
20397;SDS011;10358;49.590;11.030;2023-04-21T13:52:17;6.30;;;2.78;;
20397;SDS011;10358;49.590;11.030;2023-04-21T13:54:43;3.35;;;2.70;;
20397;SDS011;10358;49.590;11.030;2023-04-21T13:57:08;3.28;;;2.78;;
20397;SDS011;10358;49.590;11.030;2023-04-21T13:59:34;4.35;;;2.75;;
20397;SDS011;10358;49.590;11.030;2023-04-21T14:02:00;3.85;;;2.80;;
20397;SDS011;10358;49.590;11.030;2023-04-21T14:04:25;6.45;;;3.13;;
20397;SDS011;10358;49.590;11.030;2023-04-21T14:06:51;4.28;;;2.95;;
20397;SDS011;10358;49.590;11.030;2023-04-21T14:09:16;4.13;;;2.97;;
20397;SDS011;10358;49.590;11.030;2023-04-21T14:11:42;3.60;;;2.80;;
20397;SDS011;10358;49.590;11.030;2023-04-21T14:14:08;3.92;;;2.95;;
20397;SDS011;10358;49.590;11.030;2023-04-21T14:16:33;4.13;;;2.90;;
20397;SDS011;10358;49.590;11.030;2023-04-21T14:18:59;3.90;;;2.97;;
20397;SDS011;10358;49.590;11.030;2023-04-21T14:21:24;4.15;;;2.90;;
20397;SDS011;10358;49.590;11.030;2023-04-21T14:23:50;3.05;;;2.50;;
20397;SDS011;10358;49.590;11.030;2023-04-21T14:26:15;4.18;;;2.67;;
20397;SDS011;10358;49.590;11.030;2023-04-21T14:28:41;4.20;;;2.75;;
20397;SDS011;10358;49.590;11.030;2023-04-21T14:31:07;3.80;;;2.30;;